createdAt,value
2022-09-14T00:02:57.446Z,36
2022-09-14T00:12:56.387Z,38
2022-09-14T00:22:58.721Z,38
2022-09-14T00:32:58.844Z,42
2022-09-14T00:43:02.109Z,48
2022-09-14T00:53:04.528Z,53
2022-09-14T01:03:06.073Z,60
2022-09-14T01:13:08.710Z,58
2022-09-14T01:23:11.039Z,65
2022-09-14T01:33:13.885Z,69
2022-09-14T01:43:16.253Z,75
2022-09-14T01:53:18.629Z,82
2022-09-14T02:03:24.547Z,89
2022-09-14T02:13:24.834Z,89
2022-09-14T02:23:27.380Z,111
2022-09-14T02:33:30.121Z,119
2022-09-14T02:43:32.239Z,153
2022-09-14T02:53:35.227Z,143
2022-09-14T03:03:37.462Z,148
2022-09-14T03:13:40.109Z,168
2022-09-14T03:23:42.071Z,158
2022-09-14T03:33:44.972Z,156
2022-09-14T03:43:49.586Z,156
2022-09-14T03:53:51.462Z,161
2022-09-14T04:03:53.410Z,156
2022-09-14T04:13:56.001Z,153
2022-09-14T04:24:14.951Z,148
2022-09-14T04:34:10.877Z,155
2022-09-14T04:44:17.176Z,156
2022-09-14T04:54:17.980Z,163
2022-09-14T05:04:20.451Z,153
2022-09-14T05:14:23.227Z,156
2022-09-14T05:24:24.581Z,161
2022-09-14T05:34:27.163Z,170
2022-09-14T05:44:29.807Z,175
2022-09-14T05:54:31.239Z,177
2022-09-14T06:04:35.299Z,178
2022-09-14T06:14:36.598Z,178
2022-09-14T06:24:40.179Z,219
2022-09-14T06:34:43.030Z,187
2022-09-14T06:44:45.733Z,177
2022-09-14T06:54:48.580Z,251
2022-09-14T07:04:51.844Z,234
2022-09-14T07:14:54.967Z,161
2022-09-14T07:24:58.027Z,144
2022-09-14T07:35:05.694Z,112
2022-09-14T07:45:11.168Z,85
2022-09-14T07:55:13.116Z,72
2022-09-14T08:05:16.657Z,55
2022-09-14T08:15:19.135Z,50
2022-09-14T08:25:27.609Z,41
2022-09-14T08:35:56.843Z,36
2022-09-14T08:45:46.201Z,40
2022-09-14T08:55:49.754Z,33
2022-09-14T09:05:51.012Z,34
2022-09-14T09:15:54.390Z,31
2022-09-14T09:25:57.827Z,31
2022-09-14T09:36:01.147Z,29
2022-09-14T09:46:04.221Z,16
2022-09-14T09:56:06.780Z,27
2022-09-14T10:06:11.969Z,27
2022-09-14T10:16:15.341Z,16
2022-09-14T10:26:23.824Z,15
2022-09-14T10:36:33.714Z,13
2022-09-14T10:46:32.388Z,14
2022-09-14T10:56:30.938Z,28
2022-09-14T11:06:32.133Z,15
2022-09-14T11:16:32.313Z,13
2022-09-14T11:26:32.567Z,28
2022-09-14T11:36:32.227Z,28
2022-09-14T11:46:29.711Z,32
2022-09-14T11:56:30.839Z,34
2022-09-14T12:06:32.741Z,26
2022-09-14T12:16:35.566Z,26
2022-09-14T12:26:37.349Z,13
2022-09-14T12:36:38.988Z,11
2022-09-14T12:46:40.900Z,12
2022-09-14T12:56:44.456Z,10
2022-09-14T13:06:47.088Z,10
2022-09-14T13:16:47.534Z,8
2022-09-14T13:26:49.252Z,10
2022-09-14T13:36:51.742Z,11
2022-09-14T13:46:53.932Z,14
2022-09-14T13:56:57.625Z,14
2022-09-14T14:06:59.746Z,9
2022-09-14T14:17:06.438Z,8
2022-09-14T14:27:07.822Z,7
2022-09-14T14:37:14.426Z,8
2022-09-14T14:47:15.379Z,10
2022-09-14T14:57:17.970Z,8
2022-09-14T15:07:27.835Z,10
2022-09-14T15:17:26.468Z,11
2022-09-14T15:27:29.489Z,8
2022-09-14T15:37:32.796Z,8
2022-09-14T15:47:37.034Z,7
2022-09-14T15:57:38.283Z,8
2022-09-14T16:07:40.008Z,8
2022-09-14T16:17:42.739Z,10
2022-09-14T16:27:45.804Z,11
2022-09-14T16:37:47.772Z,14
2022-09-14T16:47:49.870Z,11
2022-09-14T16:57:57.770Z,11
2022-09-14T17:07:58.042Z,13
2022-09-14T17:18:01.001Z,11
2022-09-14T17:28:03.560Z,13
2022-09-14T17:38:06.188Z,11
2022-09-14T17:48:08.783Z,11
2022-09-14T17:58:13.584Z,12
2022-09-14T18:08:14.462Z,12
2022-09-14T18:18:17.478Z,13
2022-09-14T18:28:20.224Z,26
2022-09-14T18:38:27.391Z,23
2022-09-14T18:48:27.989Z,13
2022-09-14T18:58:31.330Z,14
2022-09-14T19:08:34.157Z,28
2022-09-14T19:18:35.441Z,14
2022-09-14T19:28:39.265Z,26
2022-09-14T19:38:42.382Z,26
2022-09-14T19:48:48.860Z,28
2022-09-14T19:58:48.722Z,14
2022-09-14T20:08:53.212Z,25
2022-09-14T20:19:00.423Z,26
2022-09-14T20:29:01.770Z,13
2022-09-14T20:39:08.983Z,13
2022-09-14T20:49:10.348Z,14
2022-09-14T20:59:18.003Z,14
2022-09-14T21:09:17.242Z,13
2022-09-14T21:19:21.536Z,13
